Terminal Aerodrome Forecast
Issued by NWS Greer, SC

Home | Current Version | Previous Version | Text Only | Print | Product List | Glossary On
Versions: 1 2 3 4 5 6 7 8 9 10 11 12 13 14 15 16 17 18 19 20 21 22 23 24 25 26
000
FTUS42 KGSP 240850 AAA
TAFCLT
TAF AMD
KCLT 240850Z 2409/2506 21003KT P6SM SCT010
      TEMPO 2410/2413 6SM BR SCT005
     FM241400 24008KT P6SM FEW250
     FM250100 28006KT P6SM SCT250=

USA.gov is the U.S. government's official web portal to all federal, state and local government web resources and services.